sensor_id;sensor_type;location;lat;lon;timestamp;P1;durP1;ratioP1;P2;durP2;ratioP2
11042;SDS011;5574;48.786;10.120;2023-09-18T00:01:03;3.72;;;3.45;;
11042;SDS011;5574;48.786;10.120;2023-09-18T00:03:30;4.10;;;3.78;;
11042;SDS011;5574;48.786;10.120;2023-09-18T00:05:58;4.15;;;3.78;;
11042;SDS011;5574;48.786;10.120;2023-09-18T00:08:25;3.90;;;3.33;;
11042;SDS011;5574;48.786;10.120;2023-09-18T00:10:52;3.92;;;3.55;;
11042;SDS011;5574;48.786;10.120;2023-09-18T00:13:20;3.92;;;3.63;;
11042;SDS011;5574;48.786;10.120;2023-09-18T00:15:47;4.13;;;3.83;;
11042;SDS011;5574;48.786;10.120;2023-09-18T00:18:15;4.15;;;3.85;;
11042;SDS011;5574;48.786;10.120;2023-09-18T00:20:42;3.92;;;3.50;;
11042;SDS011;5574;48.786;10.120;2023-09-18T00:23:13;4.38;;;3.78;;
11042;SDS011;5574;48.786;10.120;2023-09-18T00:25:40;4.30;;;4.00;;
11042;SDS011;5574;48.786;10.120;2023-09-18T00:28:07;4.10;;;3.80;;
11042;SDS011;5574;48.786;10.120;2023-09-18T00:30:34;4.47;;;4.18;;
11042;SDS011;5574;48.786;10.120;2023-09-18T00:33:01;4.15;;;3.78;;
11042;SDS011;5574;48.786;10.120;2023-09-18T00:35:29;4.18;;;3.75;;
11042;SDS011;5574;48.786;10.120;2023-09-18T00:37:56;4.97;;;3.90;;
11042;SDS011;5574;48.786;10.120;2023-09-18T00:40:23;4.53;;;3.80;;
11042;SDS011;5574;48.786;10.120;2023-09-18T00:42:49;5.72;;;4.10;;
11042;SDS011;5574;48.786;10.120;2023-09-18T00:45:16;4.43;;;4.00;;
11042;SDS011;5574;48.786;10.120;2023-09-18T00:47:43;4.15;;;3.85;;
11042;SDS011;5574;48.786;10.120;2023-09-18T00:50:10;5.40;;;4.20;;
11042;SDS011;5574;48.786;10.120;2023-09-18T00:52:41;5.13;;;4.10;;
11042;SDS011;5574;48.786;10.120;2023-09-18T00:55:08;4.32;;;4.03;;
11042;SDS011;5574;48.786;10.120;2023-09-18T00:57:36;4.22;;;3.90;;
11042;SDS011;5574;48.786;10.120;2023-09-18T01:00:04;4.18;;;3.63;;
11042;SDS011;5574;48.786;10.120;2023-09-18T01:02:32;4.13;;;3.83;;
11042;SDS011;5574;48.786;10.120;2023-09-18T01:04:58;4.70;;;4.32;;
11042;SDS011;5574;48.786;10.120;2023-09-18T01:07:26;4.93;;;4.43;;
11042;SDS011;5574;48.786;10.120;2023-09-18T01:09:54;4.75;;;4.35;;
11042;SDS011;5574;48.786;10.120;2023-09-18T01:12:23;4.85;;;4.20;;
11042;SDS011;5574;48.786;10.120;2023-09-18T01:14:57;4.80;;;4.30;;
11042;SDS011;5574;48.786;10.120;2023-09-18T01:17:29;4.45;;;4.05;;
11042;SDS011;5574;48.786;10.120;2023-09-18T01:20:02;4.70;;;4.30;;
11042;SDS011;5574;48.786;10.120;2023-09-18T01:22:32;4.65;;;4.35;;
11042;SDS011;5574;48.786;10.120;2023-09-18T01:24:58;5.30;;;3.92;;
11042;SDS011;5574;48.786;10.120;2023-09-18T01:27:25;4.53;;;3.95;;
11042;SDS011;5574;48.786;10.120;2023-09-18T01:29:52;4.40;;;4.00;;
11042;SDS011;5574;48.786;10.120;2023-09-18T01:32:19;4.30;;;3.95;;
11042;SDS011;5574;48.786;10.120;2023-09-18T01:34:49;4.20;;;3.80;;
11042;SDS011;5574;48.786;10.120;2023-09-18T01:37:19;4.28;;;3.88;;
11042;SDS011;5574;48.786;10.120;2023-09-18T01:39:50;4.95;;;4.35;;
11042;SDS011;5574;48.786;10.120;2023-09-18T01:42:18;5.35;;;4.47;;
11042;SDS011;5574;48.786;10.120;2023-09-18T01:44:46;5.22;;;4.78;;
11042;SDS011;5574;48.786;10.120;2023-09-18T01:47:14;6.18;;;5.68;;
11042;SDS011;5574;48.786;10.120;2023-09-18T01:49:43;6.30;;;5.80;;
11042;SDS011;5574;48.786;10.120;2023-09-18T01:52:11;5.93;;;5.50;;
11042;SDS011;5574;48.786;10.120;2023-09-18T01:54:38;4.60;;;4.20;;
11042;SDS011;5574;48.786;10.120;2023-09-18T01:57:06;6.00;;;4.47;;
11042;SDS011;5574;48.786;10.120;2023-09-18T01:59:33;4.10;;;3.80;;
11042;SDS011;5574;48.786;10.120;2023-09-18T02:02:00;4.40;;;4.00;;
11042;SDS011;5574;48.786;10.120;2023-09-18T02:04:28;4.05;;;3.75;;
11042;SDS011;5574;48.786;10.120;2023-09-18T02:06:56;4.18;;;3.85;;
11042;SDS011;5574;48.786;10.120;2023-09-18T02:09:23;4.43;;;4.03;;
11042;SDS011;5574;48.786;10.120;2023-09-18T02:11:49;3.92;;;3.63;;
11042;SDS011;5574;48.786;10.120;2023-09-18T02:14:17;4.82;;;4.30;;
11042;SDS011;5574;48.786;10.120;2023-09-18T02:16:44;4.40;;;4.00;;
11042;SDS011;5574;48.786;10.120;2023-09-18T02:19:11;4.85;;;4.45;;
11042;SDS011;5574;48.786;10.120;2023-09-18T02:21:39;4.82;;;4.20;;
11042;SDS011;5574;48.786;10.120;2023-09-18T02:24:06;4.70;;;4.25;;
11042;SDS011;5574;48.786;10.120;2023-09-18T02:26:34;4.72;;;4.35;;
11042;SDS011;5574;48.786;10.120;2023-09-18T02:29:08;5.63;;;5.13;;
11042;SDS011;5574;48.786;10.120;2023-09-18T02:31:37;5.00;;;4.60;;
11042;SDS011;5574;48.786;10.120;2023-09-18T02:34:04;5.20;;;4.47;;
11042;SDS011;5574;48.786;10.120;2023-09-18T02:36:32;4.55;;;4.13;;
11042;SDS011;5574;48.786;10.120;2023-09-18T02:38:59;4.75;;;4.25;;
11042;SDS011;5574;48.786;10.120;2023-09-18T02:41:25;4.75;;;4.40;;
11042;SDS011;5574;48.786;10.120;2023-09-18T02:43:52;5.03;;;4.60;;
11042;SDS011;5574;48.786;10.120;2023-09-18T02:46:19;5.20;;;4.70;;
11042;SDS011;5574;48.786;10.120;2023-09-18T02:48:47;5.03;;;4.55;;
11042;SDS011;5574;48.786;10.120;2023-09-18T02:51:13;4.72;;;4.35;;
11042;SDS011;5574;48.786;10.120;2023-09-18T02:53:40;5.20;;;4.80;;
11042;SDS011;5574;48.786;10.120;2023-09-18T02:56:07;5.18;;;4.68;;
11042;SDS011;5574;48.786;10.120;2023-09-18T02:58:34;6.30;;;4.45;;
11042;SDS011;5574;48.786;10.120;2023-09-18T03:01:01;4.93;;;4.40;;
11042;SDS011;5574;48.786;10.120;2023-09-18T03:03:29;5.57;;;4.50;;
11042;SDS011;5574;48.786;10.120;2023-09-18T03:06:01;4.72;;;4.32;;
11042;SDS011;5574;48.786;10.120;2023-09-18T03:08:28;5.05;;;4.63;;
11042;SDS011;5574;48.786;10.120;2023-09-18T03:10:55;4.82;;;4.43;;
11042;SDS011;5574;48.786;10.120;2023-09-18T03:13:22;4.90;;;4.47;;
11042;SDS011;5574;48.786;10.120;2023-09-18T03:15:49;5.10;;;4.70;;
11042;SDS011;5574;48.786;10.120;2023-09-18T03:18:16;5.45;;;5.00;;
11042;SDS011;5574;48.786;10.120;2023-09-18T03:20:42;5.00;;;4.60;;
11042;SDS011;5574;48.786;10.120;2023-09-18T03:23:11;5.57;;;5.18;;
11042;SDS011;5574;48.786;10.120;2023-09-18T03:25:38;5.00;;;4.60;;
11042;SDS011;5574;48.786;10.120;2023-09-18T03:28:05;6.03;;;5.45;;
11042;SDS011;5574;48.786;10.120;2023-09-18T03:30:31;6.38;;;5.78;;
11042;SDS011;5574;48.786;10.120;2023-09-18T03:32:58;6.88;;;6.22;;
11042;SDS011;5574;48.786;10.120;2023-09-18T03:35:25;7.18;;;6.57;;
11042;SDS011;5574;48.786;10.120;2023-09-18T03:37:54;7.38;;;6.35;;
11042;SDS011;5574;48.786;10.120;2023-09-18T03:40:22;7.10;;;6.50;;
11042;SDS011;5574;48.786;10.120;2023-09-18T03:42:49;7.25;;;6.65;;
11042;SDS011;5574;48.786;10.120;2023-09-18T03:45:16;6.93;;;6.32;;
11042;SDS011;5574;48.786;10.120;2023-09-18T03:47:43;6.72;;;6.05;;
11042;SDS011;5574;48.786;10.120;2023-09-18T03:50:11;5.43;;;4.75;;
11042;SDS011;5574;48.786;10.120;2023-09-18T03:52:38;4.90;;;4.50;;
11042;SDS011;5574;48.786;10.120;2023-09-18T03:55:05;4.65;;;4.35;;
11042;SDS011;5574;48.786;10.120;2023-09-18T03:57:34;5.28;;;4.38;;
11042;SDS011;5574;48.786;10.120;2023-09-18T04:00:01;4.85;;;4.43;;
11042;SDS011;5574;48.786;10.120;2023-09-18T04:02:29;4.95;;;4.55;;
11042;SDS011;5574;48.786;10.120;2023-09-18T04:04:56;4.95;;;4.55;;
11042;SDS011;5574;48.786;10.120;2023-09-18T04:07:23;4.40;;;4.10;;
11042;SDS011;5574;48.786;10.120;2023-09-18T04:09:49;5.13;;;4.53;;
11042;SDS011;5574;48.786;10.120;2023-09-18T04:12:16;5.75;;;4.60;;
11042;SDS011;5574;48.786;10.120;2023-09-18T04:14:45;4.78;;;4.38;;
11042;SDS011;5574;48.786;10.120;2023-09-18T04:17:11;4.90;;;4.50;;
11042;SDS011;5574;48.786;10.120;2023-09-18T04:19:38;4.70;;;4.30;;
11042;SDS011;5574;48.786;10.120;2023-09-18T04:22:05;4.80;;;4.40;;
11042;SDS011;5574;48.786;10.120;2023-09-18T04:24:33;5.85;;;4.40;;
11042;SDS011;5574;48.786;10.120;2023-09-18T04:26:59;4.82;;;4.40;;
11042;SDS011;5574;48.786;10.120;2023-09-18T04:29:26;4.90;;;4.50;;
11042;SDS011;5574;48.786;10.120;2023-09-18T04:31:54;5.00;;;4.57;;
11042;SDS011;5574;48.786;10.120;2023-09-18T04:34:22;5.63;;;5.13;;
11042;SDS011;5574;48.786;10.120;2023-09-18T04:36:49;6.07;;;4.88;;
11042;SDS011;5574;48.786;10.120;2023-09-18T04:39:16;7.72;;;5.20;;
11042;SDS011;5574;48.786;10.120;2023-09-18T04:41:44;8.75;;;5.47;;
11042;SDS011;5574;48.786;10.120;2023-09-18T04:44:11;4.85;;;4.40;;
11042;SDS011;5574;48.786;10.120;2023-09-18T04:46:39;5.70;;;5.20;;
11042;SDS011;5574;48.786;10.120;2023-09-18T04:49:08;5.13;;;4.63;;
11042;SDS011;5574;48.786;10.120;2023-09-18T04:51:36;7.28;;;5.25;;
11042;SDS011;5574;48.786;10.120;2023-09-18T04:54:04;5.85;;;5.45;;
11042;SDS011;5574;48.786;10.120;2023-09-18T04:56:31;5.10;;;4.60;;
11042;SDS011;5574;48.786;10.120;2023-09-18T04:58:58;5.45;;;4.72;;
11042;SDS011;5574;48.786;10.120;2023-09-18T05:01:24;5.60;;;4.60;;
11042;SDS011;5574;48.786;10.120;2023-09-18T05:03:51;5.72;;;5.00;;
11042;SDS011;5574;48.786;10.120;2023-09-18T05:06:20;5.30;;;4.90;;
11042;SDS011;5574;48.786;10.120;2023-09-18T05:08:46;5.15;;;4.32;;
11042;SDS011;5574;48.786;10.120;2023-09-18T05:11:13;7.85;;;5.03;;
11042;SDS011;5574;48.786;10.120;2023-09-18T05:13:40;4.63;;;4.20;;
11042;SDS011;5574;48.786;10.120;2023-09-18T05:16:06;6.18;;;4.10;;
11042;SDS011;5574;48.786;10.120;2023-09-18T05:18:33;5.55;;;4.85;;
11042;SDS011;5574;48.786;10.120;2023-09-18T05:24:41;7.40;;;4.53;;
11042;SDS011;5574;48.786;10.120;2023-09-18T05:27:10;6.10;;;4.05;;
11042;SDS011;5574;48.786;10.120;2023-09-18T05:29:37;5.15;;;4.65;;
11042;SDS011;5574;48.786;10.120;2023-09-18T05:32:04;5.28;;;3.65;;
11042;SDS011;5574;48.786;10.120;2023-09-18T05:34:31;5.93;;;4.55;;
11042;SDS011;5574;48.786;10.120;2023-09-18T05:36:57;5.68;;;4.30;;
11042;SDS011;5574;48.786;10.120;2023-09-18T05:39:24;6.00;;;4.50;;
11042;SDS011;5574;48.786;10.120;2023-09-18T05:41:52;5.10;;;4.20;;
11042;SDS011;5574;48.786;10.120;2023-09-18T05:44:19;9.52;;;4.55;;
11042;SDS011;5574;48.786;10.120;2023-09-18T05:46:46;7.43;;;4.63;;
11042;SDS011;5574;48.786;10.120;2023-09-18T05:49:12;5.32;;;3.95;;
11042;SDS011;5574;48.786;10.120;2023-09-18T05:51:40;5.60;;;4.38;;
11042;SDS011;5574;48.786;10.120;2023-09-18T05:54:07;5.05;;;4.55;;
11042;SDS011;5574;48.786;10.120;2023-09-18T05:56:34;5.88;;;4.70;;
11042;SDS011;5574;48.786;10.120;2023-09-18T05:59:02;6.55;;;4.40;;
11042;SDS011;5574;48.786;10.120;2023-09-18T06:01:29;4.75;;;4.35;;
11042;SDS011;5574;48.786;10.120;2023-09-18T06:03:56;6.05;;;4.38;;
11042;SDS011;5574;48.786;10.120;2023-09-18T06:06:22;9.23;;;4.55;;
11042;SDS011;5574;48.786;10.120;2023-09-18T06:08:50;8.20;;;4.68;;
11042;SDS011;5574;48.786;10.120;2023-09-18T06:11:18;8.20;;;4.97;;
11042;SDS011;5574;48.786;10.120;2023-09-18T06:13:45;10.13;;;5.63;;
11042;SDS011;5574;48.786;10.120;2023-09-18T06:16:13;9.35;;;6.22;;
11042;SDS011;5574;48.786;10.120;2023-09-18T06:18:40;11.80;;;5.15;;
11042;SDS011;5574;48.786;10.120;2023-09-18T14:22:44;2.90;;;1.75;;
11042;SDS011;5574;48.786;10.120;2023-09-18T14:28:36;2.45;;;1.63;;
11042;SDS011;5574;48.786;10.120;2023-09-18T14:31:02;1.58;;;1.48;;
11042;SDS011;5574;48.786;10.120;2023-09-18T14:33:29;3.08;;;1.98;;
11042;SDS011;5574;48.786;10.120;2023-09-18T14:35:56;2.25;;;1.50;;
11042;SDS011;5574;48.786;10.120;2023-09-18T14:38:24;1.75;;;1.60;;
11042;SDS011;5574;48.786;10.120;2023-09-18T14:40:51;1.80;;;1.50;;
11042;SDS011;5574;48.786;10.120;2023-09-18T14:43:17;3.63;;;1.70;;
11042;SDS011;5574;48.786;10.120;2023-09-18T14:45:44;1.70;;;1.60;;
11042;SDS011;5574;48.786;10.120;2023-09-18T14:48:11;3.00;;;1.45;;
11042;SDS011;5574;48.786;10.120;2023-09-18T14:50:37;2.25;;;1.80;;
11042;SDS011;5574;48.786;10.120;2023-09-18T14:53:04;1.77;;;1.50;;
11042;SDS011;5574;48.786;10.120;2023-09-18T14:55:33;1.95;;;1.70;;
11042;SDS011;5574;48.786;10.120;2023-09-18T14:58:00;2.03;;;1.92;;
11042;SDS011;5574;48.786;10.120;2023-09-18T15:00:27;1.80;;;1.70;;
11042;SDS011;5574;48.786;10.120;2023-09-18T15:02:54;2.38;;;1.70;;
11042;SDS011;5574;48.786;10.120;2023-09-18T15:05:20;1.98;;;1.70;;
11042;SDS011;5574;48.786;10.120;2023-09-18T15:07:47;2.88;;;1.80;;
11042;SDS011;5574;48.786;10.120;2023-09-18T15:10:14;2.08;;;1.55;;
11042;SDS011;5574;48.786;10.120;2023-09-18T15:12:42;2.05;;;1.67;;
11042;SDS011;5574;48.786;10.120;2023-09-18T15:15:09;3.67;;;1.60;;
11042;SDS011;5574;48.786;10.120;2023-09-18T15:17:36;2.83;;;1.83;;
11042;SDS011;5574;48.786;10.120;2023-09-18T15:20:03;6.30;;;1.85;;
11042;SDS011;5574;48.786;10.120;2023-09-18T15:22:31;5.25;;;1.70;;
11042;SDS011;5574;48.786;10.120;2023-09-18T15:24:58;4.88;;;2.10;;
11042;SDS011;5574;48.786;10.120;2023-09-18T15:27:26;3.22;;;1.75;;
11042;SDS011;5574;48.786;10.120;2023-09-18T15:29:54;1.52;;;1.42;;
11042;SDS011;5574;48.786;10.120;2023-09-18T15:32:21;2.08;;;1.65;;
11042;SDS011;5574;48.786;10.120;2023-09-18T15:34:47;1.70;;;1.60;;
11042;SDS011;5574;48.786;10.120;2023-09-18T15:37:14;2.10;;;1.50;;
11042;SDS011;5574;48.786;10.120;2023-09-18T15:39:41;2.72;;;1.60;;
11042;SDS011;5574;48.786;10.120;2023-09-18T15:42:08;5.28;;;1.90;;
11042;SDS011;5574;48.786;10.120;2023-09-18T15:44:34;2.05;;;1.33;;
11042;SDS011;5574;48.786;10.120;2023-09-18T15:47:03;1.92;;;1.52;;
11042;SDS011;5574;48.786;10.120;2023-09-18T15:49:30;1.98;;;1.27;;
11042;SDS011;5574;48.786;10.120;2023-09-18T15:51:57;2.67;;;1.60;;
11042;SDS011;5574;48.786;10.120;2023-09-18T15:54:24;1.90;;;1.50;;
11042;SDS011;5574;48.786;10.120;2023-09-18T15:56:51;2.83;;;1.42;;
11042;SDS011;5574;48.786;10.120;2023-09-18T15:59:17;3.28;;;1.40;;
11042;SDS011;5574;48.786;10.120;2023-09-18T16:01:44;2.65;;;1.30;;
11042;SDS011;5574;48.786;10.120;2023-09-18T16:04:12;5.25;;;1.52;;
11042;SDS011;5574;48.786;10.120;2023-09-18T16:06:39;1.70;;;1.35;;
11042;SDS011;5574;48.786;10.120;2023-09-18T16:09:06;2.75;;;1.50;;
11042;SDS011;5574;48.786;10.120;2023-09-18T16:11:35;2.17;;;1.58;;
11042;SDS011;5574;48.786;10.120;2023-09-18T16:14:02;6.63;;;3.55;;
11042;SDS011;5574;48.786;10.120;2023-09-18T16:16:28;2.65;;;1.95;;
11042;SDS011;5574;48.786;10.120;2023-09-18T16:18:55;2.40;;;1.40;;
11042;SDS011;5574;48.786;10.120;2023-09-18T16:21:23;2.60;;;1.30;;
11042;SDS011;5574;48.786;10.120;2023-09-18T16:23:51;2.05;;;1.17;;
11042;SDS011;5574;48.786;10.120;2023-09-18T16:26:17;1.88;;;1.23;;
11042;SDS011;5574;48.786;10.120;2023-09-18T16:28:45;1.70;;;1.40;;
11042;SDS011;5574;48.786;10.120;2023-09-18T16:31:13;1.95;;;1.50;;
11042;SDS011;5574;48.786;10.120;2023-09-18T16:33:39;2.03;;;1.40;;
11042;SDS011;5574;48.786;10.120;2023-09-18T16:36:06;3.55;;;1.48;;
11042;SDS011;5574;48.786;10.120;2023-09-18T16:38:34;11.20;;;2.08;;
11042;SDS011;5574;48.786;10.120;2023-09-18T16:41:06;9.45;;;2.17;;
11042;SDS011;5574;48.786;10.120;2023-09-18T16:43:32;4.38;;;1.73;;
11042;SDS011;5574;48.786;10.120;2023-09-18T16:45:59;1.70;;;1.60;;
11042;SDS011;5574;48.786;10.120;2023-09-18T16:48:26;2.90;;;1.90;;
11042;SDS011;5574;48.786;10.120;2023-09-18T16:50:55;3.17;;;1.75;;
11042;SDS011;5574;48.786;10.120;2023-09-18T16:53:22;5.40;;;1.90;;
11042;SDS011;5574;48.786;10.120;2023-09-18T16:55:50;2.80;;;1.50;;
11042;SDS011;5574;48.786;10.120;2023-09-18T16:58:17;3.22;;;1.65;;
11042;SDS011;5574;48.786;10.120;2023-09-18T17:00:43;2.83;;;1.50;;
11042;SDS011;5574;48.786;10.120;2023-09-18T17:03:10;5.50;;;1.90;;
11042;SDS011;5574;48.786;10.120;2023-09-18T17:05:37;3.22;;;1.58;;
11042;SDS011;5574;48.786;10.120;2023-09-18T17:08:04;2.95;;;1.60;;
11042;SDS011;5574;48.786;10.120;2023-09-18T17:10:31;2.00;;;1.60;;
11042;SDS011;5574;48.786;10.120;2023-09-18T17:13:00;1.63;;;1.45;;
11042;SDS011;5574;48.786;10.120;2023-09-18T17:15:28;2.33;;;1.88;;
11042;SDS011;5574;48.786;10.120;2023-09-18T17:17:55;4.47;;;2.10;;
11042;SDS011;5574;48.786;10.120;2023-09-18T17:20:23;3.38;;;1.90;;
11042;SDS011;5574;48.786;10.120;2023-09-18T17:22:50;6.97;;;1.88;;
11042;SDS011;5574;48.786;10.120;2023-09-18T17:25:17;2.90;;;1.73;;
11042;SDS011;5574;48.786;10.120;2023-09-18T17:27:44;6.65;;;1.67;;
11042;SDS011;5574;48.786;10.120;2023-09-18T17:30:12;4.18;;;1.40;;
11042;SDS011;5574;48.786;10.120;2023-09-18T17:32:39;2.42;;;1.67;;
11042;SDS011;5574;48.786;10.120;2023-09-18T17:35:07;5.55;;;1.70;;
11042;SDS011;5574;48.786;10.120;2023-09-18T17:37:34;8.00;;;2.10;;
11042;SDS011;5574;48.786;10.120;2023-09-18T17:40:01;4.38;;;1.98;;
11042;SDS011;5574;48.786;10.120;2023-09-18T17:42:29;3.58;;;1.75;;
11042;SDS011;5574;48.786;10.120;2023-09-18T17:44:56;2.55;;;1.77;;
11042;SDS011;5574;48.786;10.120;2023-09-18T17:47:24;3.38;;;2.10;;
11042;SDS011;5574;48.786;10.120;2023-09-18T17:49:51;4.78;;;2.00;;
11042;SDS011;5574;48.786;10.120;2023-09-18T17:52:17;4.15;;;1.77;;
11042;SDS011;5574;48.786;10.120;2023-09-18T17:54:45;3.38;;;1.80;;
11042;SDS011;5574;48.786;10.120;2023-09-18T17:57:12;3.58;;;1.60;;
11042;SDS011;5574;48.786;10.120;2023-09-18T17:59:38;2.47;;;2.28;;
11042;SDS011;5574;48.786;10.120;2023-09-18T18:02:05;2.33;;;2.13;;
11042;SDS011;5574;48.786;10.120;2023-09-18T18:04:33;2.38;;;1.98;;
11042;SDS011;5574;48.786;10.120;2023-09-18T18:07:01;3.00;;;1.65;;
11042;SDS011;5574;48.786;10.120;2023-09-18T18:09:28;2.80;;;1.95;;
11042;SDS011;5574;48.786;10.120;2023-09-18T18:11:55;10.80;;;2.97;;
11042;SDS011;5574;48.786;10.120;2023-09-18T18:14:21;7.22;;;2.70;;
11042;SDS011;5574;48.786;10.120;2023-09-18T18:16:48;4.60;;;1.90;;
11042;SDS011;5574;48.786;10.120;2023-09-18T18:19:15;8.82;;;2.20;;
11042;SDS011;5574;48.786;10.120;2023-09-18T18:21:43;2.20;;;2.00;;
11042;SDS011;5574;48.786;10.120;2023-09-18T18:24:10;2.55;;;1.85;;
11042;SDS011;5574;48.786;10.120;2023-09-18T18:26:38;3.78;;;2.20;;
11042;SDS011;5574;48.786;10.120;2023-09-18T18:29:05;6.88;;;2.42;;
11042;SDS011;5574;48.786;10.120;2023-09-18T18:31:32;3.38;;;2.00;;
11042;SDS011;5574;48.786;10.120;2023-09-18T18:33:59;3.65;;;2.30;;
11042;SDS011;5574;48.786;10.120;2023-09-18T18:36:28;3.88;;;2.03;;
11042;SDS011;5574;48.786;10.120;2023-09-18T18:38:57;2.03;;;1.85;;
11042;SDS011;5574;48.786;10.120;2023-09-18T18:41:24;2.20;;;1.73;;
11042;SDS011;5574;48.786;10.120;2023-09-18T18:43:51;3.20;;;2.10;;
11042;SDS011;5574;48.786;10.120;2023-09-18T18:46:18;4.60;;;2.28;;
11042;SDS011;5574;48.786;10.120;2023-09-18T18:48:45;4.43;;;2.63;;
11042;SDS011;5574;48.786;10.120;2023-09-18T18:51:12;3.83;;;2.67;;
11042;SDS011;5574;48.786;10.120;2023-09-18T18:53:40;3.92;;;1.92;;
11042;SDS011;5574;48.786;10.120;2023-09-18T18:56:09;3.42;;;2.10;;
11042;SDS011;5574;48.786;10.120;2023-09-18T18:58:38;4.68;;;2.28;;
11042;SDS011;5574;48.786;10.120;2023-09-18T19:01:05;2.38;;;2.15;;
11042;SDS011;5574;48.786;10.120;2023-09-18T19:03:32;4.13;;;2.20;;
11042;SDS011;5574;48.786;10.120;2023-09-18T19:06:02;5.13;;;2.13;;
11042;SDS011;5574;48.786;10.120;2023-09-18T19:08:29;2.28;;;2.08;;
11042;SDS011;5574;48.786;10.120;2023-09-18T19:10:57;5.22;;;2.20;;
11042;SDS011;5574;48.786;10.120;2023-09-18T19:13:26;2.80;;;2.17;;
11042;SDS011;5574;48.786;10.120;2023-09-18T19:15:53;2.50;;;2.10;;
11042;SDS011;5574;48.786;10.120;2023-09-18T19:18:20;3.00;;;1.90;;
11042;SDS011;5574;48.786;10.120;2023-09-18T19:20:50;3.03;;;1.80;;
11042;SDS011;5574;48.786;10.120;2023-09-18T19:23:16;4.63;;;1.98;;
11042;SDS011;5574;48.786;10.120;2023-09-18T19:25:46;7.30;;;2.58;;
11042;SDS011;5574;48.786;10.120;2023-09-18T19:28:14;3.83;;;2.30;;
11042;SDS011;5574;48.786;10.120;2023-09-18T19:30:43;4.53;;;2.35;;
11042;SDS011;5574;48.786;10.120;2023-09-18T19:33:12;5.88;;;2.10;;
11042;SDS011;5574;48.786;10.120;2023-09-18T19:35:39;4.00;;;2.20;;
11042;SDS011;5574;48.786;10.120;2023-09-18T19:38:06;2.55;;;1.75;;
11042;SDS011;5574;48.786;10.120;2023-09-18T19:40:33;1.83;;;1.60;;
11042;SDS011;5574;48.786;10.120;2023-09-18T19:43:00;3.40;;;1.45;;
11042;SDS011;5574;48.786;10.120;2023-09-18T19:45:27;1.75;;;1.50;;
11042;SDS011;5574;48.786;10.120;2023-09-18T19:47:56;3.75;;;1.50;;
11042;SDS011;5574;48.786;10.120;2023-09-18T19:50:23;2.17;;;1.65;;
11042;SDS011;5574;48.786;10.120;2023-09-18T19:52:53;2.45;;;2.10;;
11042;SDS011;5574;48.786;10.120;2023-09-18T19:55:20;3.95;;;2.13;;
11042;SDS011;5574;48.786;10.120;2023-09-18T19:57:47;4.82;;;2.17;;
11042;SDS011;5574;48.786;10.120;2023-09-18T20:00:14;1.80;;;1.70;;
11042;SDS011;5574;48.786;10.120;2023-09-18T20:02:41;4.25;;;1.88;;
11042;SDS011;5574;48.786;10.120;2023-09-18T20:05:12;1.88;;;1.65;;
11042;SDS011;5574;48.786;10.120;2023-09-18T20:07:40;3.05;;;1.50;;
11042;SDS011;5574;48.786;10.120;2023-09-18T20:10:07;1.90;;;1.65;;
11042;SDS011;5574;48.786;10.120;2023-09-18T20:12:36;3.75;;;1.80;;
11042;SDS011;5574;48.786;10.120;2023-09-18T20:15:03;1.42;;;1.33;;
11042;SDS011;5574;48.786;10.120;2023-09-18T20:17:30;4.15;;;1.65;;
11042;SDS011;5574;48.786;10.120;2023-09-18T20:19:57;1.90;;;1.23;;
11042;SDS011;5574;48.786;10.120;2023-09-18T20:22:25;2.38;;;1.40;;
11042;SDS011;5574;48.786;10.120;2023-09-18T20:24:52;1.92;;;1.70;;
11042;SDS011;5574;48.786;10.120;2023-09-18T20:27:19;5.10;;;1.83;;
11042;SDS011;5574;48.786;10.120;2023-09-18T20:29:46;3.90;;;1.88;;
11042;SDS011;5574;48.786;10.120;2023-09-18T20:32:13;4.75;;;1.73;;
11042;SDS011;5574;48.786;10.120;2023-09-18T20:34:39;2.05;;;1.48;;
11042;SDS011;5574;48.786;10.120;2023-09-18T20:37:06;3.30;;;1.70;;
11042;SDS011;5574;48.786;10.120;2023-09-18T20:39:35;2.22;;;1.48;;
11042;SDS011;5574;48.786;10.120;2023-09-18T20:42:01;4.47;;;2.00;;
11042;SDS011;5574;48.786;10.120;2023-09-18T20:44:28;2.90;;;1.80;;
11042;SDS011;5574;48.786;10.120;2023-09-18T20:46:55;2.05;;;1.95;;
11042;SDS011;5574;48.786;10.120;2023-09-18T20:49:22;3.33;;;1.60;;
11042;SDS011;5574;48.786;10.120;2023-09-18T20:51:50;2.83;;;1.35;;
11042;SDS011;5574;48.786;10.120;2023-09-18T20:54:16;1.95;;;1.65;;
11042;SDS011;5574;48.786;10.120;2023-09-18T20:56:44;2.33;;;1.70;;
11042;SDS011;5574;48.786;10.120;2023-09-18T20:59:11;2.78;;;1.55;;
11042;SDS011;5574;48.786;10.120;2023-09-18T21:01:38;4.28;;;1.70;;
11042;SDS011;5574;48.786;10.120;2023-09-18T21:04:08;2.63;;;1.75;;
11042;SDS011;5574;48.786;10.120;2023-09-18T21:06:34;5.05;;;1.90;;
11042;SDS011;5574;48.786;10.120;2023-09-18T21:09:01;2.25;;;1.60;;
11042;SDS011;5574;48.786;10.120;2023-09-18T21:11:31;6.38;;;2.13;;
11042;SDS011;5574;48.786;10.120;2023-09-18T21:13:59;2.63;;;1.92;;
11042;SDS011;5574;48.786;10.120;2023-09-18T21:16:25;2.22;;;1.65;;
11042;SDS011;5574;48.786;10.120;2023-09-18T21:18:52;2.80;;;1.73;;
11042;SDS011;5574;48.786;10.120;2023-09-18T21:21:19;4.70;;;1.58;;
11042;SDS011;5574;48.786;10.120;2023-09-18T21:23:45;7.00;;;1.95;;
11042;SDS011;5574;48.786;10.120;2023-09-18T21:26:12;3.78;;;1.70;;
11042;SDS011;5574;48.786;10.120;2023-09-18T21:28:39;2.97;;;1.50;;
11042;SDS011;5574;48.786;10.120;2023-09-18T21:31:07;3.13;;;1.98;;
11042;SDS011;5574;48.786;10.120;2023-09-18T21:33:34;3.42;;;1.77;;
11042;SDS011;5574;48.786;10.120;2023-09-18T21:36:02;5.65;;;1.70;;
11042;SDS011;5574;48.786;10.120;2023-09-18T21:38:28;3.33;;;1.42;;
11042;SDS011;5574;48.786;10.120;2023-09-18T21:40:56;3.08;;;1.83;;
11042;SDS011;5574;48.786;10.120;2023-09-18T21:43:24;2.17;;;1.48;;
11042;SDS011;5574;48.786;10.120;2023-09-18T21:45:50;2.95;;;1.80;;
11042;SDS011;5574;48.786;10.120;2023-09-18T21:48:18;3.80;;;1.70;;
11042;SDS011;5574;48.786;10.120;2023-09-18T21:50:45;3.22;;;2.00;;
11042;SDS011;5574;48.786;10.120;2023-09-18T21:53:12;2.95;;;1.70;;
11042;SDS011;5574;48.786;10.120;2023-09-18T21:55:41;3.20;;;1.70;;
11042;SDS011;5574;48.786;10.120;2023-09-18T21:58:09;3.55;;;1.65;;
11042;SDS011;5574;48.786;10.120;2023-09-18T22:00:36;4.15;;;1.88;;
11042;SDS011;5574;48.786;10.120;2023-09-18T22:03:05;4.85;;;1.80;;
11042;SDS011;5574;48.786;10.120;2023-09-18T22:05:34;2.35;;;1.92;;
11042;SDS011;5574;48.786;10.120;2023-09-18T22:08:04;2.10;;;1.65;;
11042;SDS011;5574;48.786;10.120;2023-09-18T22:10:31;1.63;;;1.50;;
11042;SDS011;5574;48.786;10.120;2023-09-18T22:12:59;3.50;;;1.90;;
11042;SDS011;5574;48.786;10.120;2023-09-18T22:15:25;2.00;;;1.42;;
11042;SDS011;5574;48.786;10.120;2023-09-18T22:17:52;2.48;;;1.63;;
11042;SDS011;5574;48.786;10.120;2023-09-18T22:20:19;3.47;;;1.70;;
11042;SDS011;5574;48.786;10.120;2023-09-18T22:22:47;2.00;;;1.65;;
11042;SDS011;5574;48.786;10.120;2023-09-18T22:25:14;2.38;;;1.80;;
11042;SDS011;5574;48.786;10.120;2023-09-18T22:27:40;2.72;;;1.98;;
11042;SDS011;5574;48.786;10.120;2023-09-18T22:30:08;2.63;;;1.63;;
11042;SDS011;5574;48.786;10.120;2023-09-18T22:32:36;2.78;;;1.60;;
11042;SDS011;5574;48.786;10.120;2023-09-18T22:35:03;7.95;;;2.42;;
11042;SDS011;5574;48.786;10.120;2023-09-18T22:37:34;2.55;;;1.58;;
11042;SDS011;5574;48.786;10.120;2023-09-18T22:54:47;2.00;;;1.65;;
11042;SDS011;5574;48.786;10.120;2023-09-18T22:57:17;4.25;;;1.60;;
11042;SDS011;5574;48.786;10.120;2023-09-18T22:59:45;3.28;;;1.65;;
11042;SDS011;5574;48.786;10.120;2023-09-18T23:02:12;1.83;;;1.73;;
11042;SDS011;5574;48.786;10.120;2023-09-18T23:04:40;2.58;;;1.52;;
11042;SDS011;5574;48.786;10.120;2023-09-18T23:07:07;2.10;;;1.33;;
11042;SDS011;5574;48.786;10.120;2023-09-18T23:09:34;3.05;;;1.75;;
11042;SDS011;5574;48.786;10.120;2023-09-18T23:12:02;2.33;;;1.50;;